Capitol Logistics 2962


PANC
Ted Stevens Anchorage International Airport
Anchorage, Alaska, US
KCVG
Cincinnati/Northern Kentucky International Airport
Covington, Kentucky, US

Activity Log

Date Flight Route Aircraft Duration
11/13/2019 CPX2962 ANC9 TED YESKA NCA11 YWV J475 VLN 4900N/10000W GFK GEP J36 ODI J30 JOT CEGRM5 B744 5h 37m

Route Details

Aircraft Information
Primary: Boeing 747-400BCF
Backup: Boeing 777-200LRF
Route Data
Distance: 2700nm
Sched. Duration: 5h 46m
Avg. Duration: 5h 37m (-9m)
Times Flown: 1
Recm'd Route: ANC9 TED YESKA NCA11 YWV J475 VLN 4900N/10000W GFK GEP J36 ODI J30 JOT CEGRM5
Planned Altitude: 35,000ft
Origin Wx: PANC 250953Z 32007KT 10SM SCT075 OVC100 02/M02 A3020 RMK AO2 CIG 075 N SLP229 T00171022 $
Dest. Wx: KCVG 250952Z 05011KT 10SM BKN024 BKN036 OVC045 08/02 A3007 RMK AO2 SLP183 T00780022
Notes: OPERATED FOR POLAR AIR CARGO

Financial History
Total Freight: 49,928lbs
Average Load: 49,928lbs/flt
Fuel Used: 142,921lbs
Avg. Fuel Used: 142,921lbs/flt
Fuel Expense: $185,797
Avg. Fuel Expense: $185,797
Avg. Fuel Cost: $1.30/lbs
Total Gross Income: $111,339
Pilot Pay: $239
Total Expenses: $12,077
Total Revenue: $-87,989
Average Revenue: $111,339.44